AMS weather

Amsterdam Airport Schiphol
Amsterdam, Noord-Holland, Netherlands

Public forecast

Using degrees Celsius for public forecast. Weather courtesy of forecast.io.

METAR (pilot weather report)

Retrieved 2017/07/27 03:25 UTC (33 minutes ago):

EHAM 270325Z 26012KT 230V290 9999 FEW035 18/14 Q1004 NOSIG

TAF (pilot weather forecast)

Forecast is more than 12 hours old.

Retrieved 2017/07/26 00:28 UTC (1 day ago):

TAF EHAM 262319Z 2700/2806 22013KT 9999 SCT008 BKN015 TEMPO 2700/2703 4000 DZRA BKN008 BECMG 2702/2704 25013KT SCT025 PROB30 TEMPO 2715/2806 24015G25KT 6000 SHRA SCT020CB BKN040 BECMG 2718/2721 22012KT